Time;durP1;ratioP1;P1;durP2;ratioP2;P2;SDS_P1;SDS_P2;PMS_P1;PMS_P2;Temp;Humidity;BMP_temperature;BMP_pressure;BME280_temperature;BME280_humidity;BME280_pressure;Samples;Min_cycle;Max_cycle;Signal;HPM_P1;HPM_P2
2023/05/24 00:01:24;;;;;;;10.23;5.85;;;;;;;15.86;68.09;101248.56;10643431;27;20027;-76
2023/05/24 00:06:26;;;;;;;12.43;6.55;;;;;;;15.81;68.30;101246.72;10652108;27;20524;-76
2023/05/24 00:11:28;;;;;;;8.50;5.82;;;;;;;15.72;68.49;101234.66;10634361;28;20039;-76
2023/05/24 00:16:31;;;;;;;12.40;5.90;;;;;;;15.61;67.61;101228.47;10619298;27;20050;-76
2023/05/24 00:21:35;;;;;;;11.25;5.70;;;;;;;15.60;68.28;101226.81;10595596;27;20044;-77
2023/05/24 00:26:37;;;;;;;10.98;6.32;;;;;;;15.54;68.46;101230.75;10627699;27;20039;-77
2023/05/24 00:31:40;;;;;;;9.00;5.57;;;;;;;15.51;69.10;101230.56;10630537;27;20074;-77
2023/05/24 00:36:43;;;;;;;15.63;6.10;;;;;;;15.39;69.74;101228.22;10600854;27;20040;-77
2023/05/24 00:41:45;;;;;;;8.65;6.38;;;;;;;15.22;69.37;101233.44;10614730;27;20501;-77
2023/05/24 00:46:48;;;;;;;9.52;7.18;;;;;;;15.13;69.01;101230.53;10623095;27;20048;-74
2023/05/24 00:51:52;;;;;;;11.05;6.28;;;;;;;15.12;68.88;101226.13;10610699;27;20497;-74
2023/05/24 00:56:55;;;;;;;10.73;7.50;;;;;;;15.09;69.30;101223.94;10640092;27;20043;-75
2023/05/24 01:02:00;;;;;;;10.68;6.28;;;;;;;14.80;69.80;101228.75;10614048;27;20047;-75
2023/05/24 01:07:45;;;;;;;9.32;6.20;;;;;;;14.69;70.81;101230.81;10620646;27;20047;-75
2023/05/24 01:13:07;;;;;;;12.15;5.85;;;;;;;14.74;70.56;101227.97;10640309;27;20047;-76
2023/05/24 01:18:29;;;;;;;11.80;5.63;;;;;;;14.74;70.34;101228.81;10638134;27;20046;-75
2023/05/24 01:23:53;;;;;;;13.73;6.03;;;;;;;14.72;70.43;101230.22;10608364;27;20035;-76
2023/05/24 01:29:00;;;;;;;10.32;5.28;;;;;;;14.56;70.12;101234.28;10581770;28;20051;-76
2023/05/24 01:34:02;;;;;;;9.77;5.28;;;;;;;14.60;70.65;101232.59;10637145;27;20054;-75
2023/05/24 01:39:04;;;;;;;8.10;4.80;;;;;;;14.57;70.40;101245.03;10632885;27;20047;-75
2023/05/24 01:44:14;;;;;;;9.48;5.25;;;;;;;14.57;70.24;101244.19;10615433;27;20529;-76
2023/05/24 01:49:23;;;;;;;12.35;5.10;;;;;;;14.71;69.41;101234.09;10612733;27;20510;-76
2023/05/24 01:54:27;;;;;;;14.23;5.82;;;;;;;14.95;68.35;101240.44;10619445;27;20046;-75
2023/05/24 01:59:31;;;;;;;10.80;5.28;;;;;;;15.13;68.26;101249.91;10639084;27;20069;-76
2023/05/24 02:04:33;;;;;;;7.40;5.30;;;;;;;15.25;67.75;101244.72;10610724;27;20031;-76
2023/05/24 02:09:35;;;;;;;8.85;5.05;;;;;;;15.52;66.66;101243.25;10602103;27;20039;-76
2023/05/24 02:14:38;;;;;;;8.77;4.78;;;;;;;15.82;65.94;101250.31;10631424;27;20059;-76
2023/05/24 02:19:45;;;;;;;7.05;4.85;;;;;;;16.03;64.98;101248.84;10628857;27;20043;-78
2023/05/24 02:24:48;;;;;;;10.98;3.95;;;;;;;16.25;64.05;101245.41;10637246;27;20054;-76
2023/05/24 02:29:51;;;;;;;8.30;4.75;;;;;;;16.45;63.04;101250.56;10582634;27;20042;-75
2023/05/24 02:34:53;;;;;;;8.07;5.45;;;;;;;16.32;63.59;101247.78;10626098;27;20433;-76
2023/05/24 02:39:56;;;;;;;8.35;5.50;;;;;;;16.23;63.55;101248.47;10627399;27;20050;-76
2023/05/24 02:44:59;;;;;;;5.90;4.78;;;;;;;16.35;63.34;101245.22;10573090;27;20045;-75
2023/05/24 02:50:01;;;;;;;6.57;4.97;;;;;;;16.78;62.21;101258.81;10652703;27;20035;-75
2023/05/24 02:55:31;;;;;;;8.35;5.43;;;;;;;17.10;61.38;101255.94;10610146;27;20042;-75
2023/05/24 03:00:33;;;;;;;9.43;5.55;;;;;;;17.40;59.98;101251.69;10636859;27;20039;-75
2023/05/24 03:05:36;;;;;;;9.88;5.68;;;;;;;17.53;59.70;101246.38;10635050;27;20512;-76
2023/05/24 03:10:38;;;;;;;10.63;5.85;;;;;;;17.75;58.81;101255.59;10633839;27;20047;-74
2023/05/24 03:15:42;;;;;;;9.93;5.75;;;;;;;17.95;58.65;101247.91;10628286;27;20035;-74
2023/05/24 03:20:44;;;;;;;6.38;4.55;;;;;;;18.31;57.20;101245.03;10629229;27;20039;-73
2023/05/24 03:25:48;;;;;;;8.07;5.15;;;;;;;18.63;56.20;101241.97;10627312;27;20053;-74
2023/05/24 03:30:50;;;;;;;10.45;5.18;;;;;;;19.00;54.51;101250.91;10613398;27;20042;-74
2023/05/24 03:35:54;;;;;;;8.48;5.00;;;;;;;18.95;55.11;101251.06;10617311;27;20051;-75
2023/05/24 03:40:56;;;;;;;9.23;5.82;;;;;;;18.73;55.35;101256.69;10609123;27;20042;-74
2023/05/24 03:45:58;;;;;;;15.82;5.60;;;;;;;18.57;55.96;101253.50;10590469;27;20363;-75
2023/05/24 03:51:03;;;;;;;7.82;4.80;;;;;;;18.88;55.09;101256.25;10646093;27;20055;-75
2023/05/24 03:56:10;;;;;;;8.32;5.28;;;;;;;19.23;53.90;101252.44;10603067;28;20067;-75
2023/05/24 04:01:13;;;;;;;6.10;4.60;;;;;;;19.86;53.22;101247.44;10617940;28;20039;-75
2023/05/24 04:06:15;;;;;;;11.38;5.20;;;;;;;20.14;52.32;101254.28;10634509;27;20039;-75
2023/05/24 04:11:18;;;;;;;10.65;5.10;;;;;;;20.62;50.90;101260.72;10670139;27;20039;-75
2023/05/24 04:16:23;;;;;;;11.50;5.18;;;;;;;20.74;50.80;101258.06;10638305;27;20035;-75
2023/05/24 04:21:25;;;;;;;6.68;5.50;;;;;;;20.87;50.38;101261.78;10643281;27;20050;-75
2023/05/24 04:26:29;;;;;;;7.10;5.30;;;;;;;21.01;50.19;101259.56;10604845;27;20050;-75
2023/05/24 04:31:33;;;;;;;8.85;4.85;;;;;;;21.55;49.12;101266.16;10621154;27;20054;-75
2023/05/24 04:36:35;;;;;;;8.10;4.72;;;;;;;21.96;46.98;101262.50;10620666;27;20440;-75
2023/05/24 04:41:37;;;;;;;10.23;4.80;;;;;;;22.42;46.52;101270.97;10636465;27;20042;-75
2023/05/24 04:46:39;;;;;;;8.60;4.95;;;;;;;22.99;45.97;101262.53;10600100;27;20047;-75
2023/05/24 04:51:41;;;;;;;10.30;4.70;;;;;;;22.71;46.47;101265.16;10612603;27;20031;-74
2023/05/24 04:56:44;;;;;;;7.47;4.65;;;;;;;23.16;46.13;101262.28;10654650;27;20413;-74
2023/05/24 05:01:46;;;;;;;8.25;4.90;;;;;;;23.53;43.92;101264.22;10623970;27;20027;-75
2023/05/24 05:06:48;;;;;;;9.70;4.78;;;;;;;23.27;44.60;101259.84;10641491;27;20512;-75
2023/05/24 05:11:54;;;;;;;7.00;4.43;;;;;;;23.42;45.22;101266.69;10641043;27;20416;-74
2023/05/24 05:16:56;;;;;;;10.68;4.68;;;;;;;24.15;43.22;101274.09;10656868;27;20035;-75
2023/05/24 05:21:58;;;;;;;4.50;3.90;;;;;;;24.08;43.05;101277.47;10644147;27;20047;-75
2023/05/24 05:27:00;;;;;;;8.02;3.97;;;;;;;24.56;42.87;101279.25;10646980;27;20039;-75
2023/05/24 05:32:03;;;;;;;5.82;4.10;;;;;;;25.02;41.74;101279.66;10628332;27;20525;-75
2023/05/24 05:37:06;;;;;;;6.03;3.85;;;;;;;25.17;40.90;101267.56;10616404;27;20035;-74
2023/05/24 05:42:08;;;;;;;5.97;3.60;;;;;;;25.29;40.19;101272.25;10650840;27;20035;-75
2023/05/24 05:47:10;;;;;;;5.68;3.92;;;;;;;25.52;40.54;101280.81;10637886;27;20042;-75
2023/05/24 05:52:13;;;;;;;6.28;3.50;;;;;;;25.38;40.42;101281.31;10611873;27;20054;-75
2023/05/24 05:57:15;;;;;;;4.95;3.88;;;;;;;26.30;38.76;101287.28;10632303;27;20031;-75
2023/05/24 06:02:17;;;;;;;6.03;3.83;;;;;;;26.04;38.92;101294.41;10608076;27;20417;-75
2023/05/24 06:07:19;;;;;;;5.35;4.22;;;;;;;26.43;38.82;101274.69;10627158;27;20038;-77
2023/05/24 06:12:22;;;;;;;6.85;4.30;;;;;;;26.65;39.22;101282.34;10632587;27;20046;-77
2023/05/24 06:17:24;;;;;;;6.05;3.83;;;;;;;26.77;37.73;101284.16;10656377;27;20035;-75
2023/05/24 06:22:28;;;;;;;6.57;3.88;;;;;;;27.34;37.34;101280.28;10647251;27;20050;-75
2023/05/24 06:27:30;;;;;;;7.30;4.18;;;;;;;27.80;36.00;101285.78;10618719;27;20449;-74
2023/05/24 06:32:32;;;;;;;6.88;4.53;;;;;;;27.98;35.37;101288.84;10635261;27;20050;-74
2023/05/24 06:37:34;;;;;;;5.53;5.03;;;;;;;28.30;34.43;101291.25;10610159;27;20390;-76
2023/05/24 06:42:37;;;;;;;10.15;6.00;;;;;;;28.10;35.28;101284.91;10639524;27;20520;-75
2023/05/24 06:47:39;;;;;;;7.65;6.22;;;;;;;27.76;36.35;101287.72;10607307;27;20050;-76
2023/05/24 06:52:42;;;;;;;6.88;6.25;;;;;;;27.70;36.18;101283.63;10654027;27;20051;-75
2023/05/24 06:57:44;;;;;;;7.45;6.78;;;;;;;27.72;36.04;101292.50;10636309;27;20038;-76
2023/05/24 07:02:46;;;;;;;6.18;5.55;;;;;;;27.86;34.76;101298.34;10638372;27;20035;-75
2023/05/24 07:07:48;;;;;;;6.45;5.05;;;;;;;27.23;35.29;101298.22;10666213;27;20045;-75
2023/05/24 07:12:51;;;;;;;5.35;4.38;;;;;;;27.27;33.85;101285.81;10654425;27;20519;-75
2023/05/24 07:17:53;;;;;;;5.47;4.65;;;;;;;27.63;34.55;101292.00;10635068;27;20066;-76
2023/05/24 07:22:55;;;;;;;5.35;4.15;;;;;;;28.22;33.42;101301.59;10643232;27;20035;-75
2023/05/24 07:27:58;;;;;;;4.32;3.88;;;;;;;27.78;33.49;101296.66;10630459;27;20502;-76
2023/05/24 07:33:01;;;;;;;4.22;3.85;;;;;;;27.62;33.08;101293.16;10623438;27;20040;-79
2023/05/24 07:38:04;;;;;;;5.82;4.18;;;;;;;27.16;34.09;101284.81;10644943;27;20031;-78
2023/05/24 07:43:06;;;;;;;4.45;4.05;;;;;;;26.42;35.72;101293.59;10620257;27;20062;-75
2023/05/24 07:48:08;;;;;;;4.68;4.10;;;;;;;26.67;35.09;101296.84;10627304;27;20039;-74
2023/05/24 07:53:10;;;;;;;5.75;4.72;;;;;;;27.56;33.69;101297.50;10627164;27;20035;-75
2023/05/24 07:58:13;;;;;;;5.65;4.65;;;;;;;27.97;33.32;101292.84;10662500;27;20046;-75
2023/05/24 08:03:16;;;;;;;4.60;4.07;;;;;;;28.45;32.81;101287.34;10656883;27;20043;-74
2023/05/24 08:08:19;;;;;;;4.78;3.97;;;;;;;28.20;31.68;101295.53;10661900;27;20556;-75
2023/05/24 08:13:21;;;;;;;4.10;3.50;;;;;;;28.31;31.51;101288.03;10626423;27;20417;-75
2023/05/24 08:18:23;;;;;;;3.45;3.15;;;;;;;28.82;30.38;101284.50;10661066;27;20050;-74
2023/05/24 08:23:25;;;;;;;4.47;3.40;;;;;;;29.06;30.29;101291.59;10661075;27;20524;-74
2023/05/24 08:28:28;;;;;;;5.68;3.50;;;;;;;28.83;30.02;101284.13;10659989;27;20045;-76
2023/05/24 08:33:30;;;;;;;4.47;3.45;;;;;;;28.77;30.02;101282.03;10619303;27;20410;-75
2023/05/24 08:38:33;;;;;;;6.07;4.10;;;;;;;29.88;28.00;101275.16;10623079;27;20052;-76
2023/05/24 08:43:37;;;;;;;4.38;3.00;;;;;;;29.50;28.56;101263.22;10617651;28;20394;-76
2023/05/24 08:48:49;;;;;;;3.67;3.30;;;;;;;28.80;29.48;101275.59;10591645;27;20090;-76
2023/05/24 08:53:51;;;;;;;3.95;3.08;;;;;;;27.82;30.53;101266.47;10640262;27;20039;-76
2023/05/24 08:58:54;;;;;;;6.10;3.53;;;;;;;26.88;31.38;101261.78;10621879;27;20035;-77
2023/05/24 09:03:58;;;;;;;4.13;3.22;;;;;;;27.37;32.27;101258.16;10639671;27;20050;-76
2023/05/24 09:09:02;;;;;;;3.83;2.95;;;;;;;26.61;32.62;101258.94;10639536;27;20039;-77
2023/05/24 09:14:05;;;;;;;5.13;3.28;;;;;;;26.94;32.45;101255.47;10617048;27;20074;-77
2023/05/24 09:19:07;;;;;;;4.70;3.83;;;;;;;27.03;32.99;101255.22;10597843;28;20524;-77
2023/05/24 09:24:10;;;;;;;4.45;3.20;;;;;;;26.12;33.47;101242.72;10624121;27;20051;-78
2023/05/24 09:29:12;;;;;;;3.60;3.30;;;;;;;25.66;33.89;101240.94;10628104;27;20053;-78
2023/05/24 09:34:20;;;;;;;7.18;3.20;;;;;;;25.27;34.72;101243.72;10592144;28;20058;-76
2023/05/24 09:39:22;;;;;;;6.35;3.35;;;;;;;24.80;34.91;101236.13;10611501;28;20047;-77
2023/05/24 09:44:27;;;;;;;5.40;3.10;;;;;;;24.76;36.04;101240.84;10593950;28;20044;-77
2023/05/24 09:49:30;;;;;;;9.38;3.40;;;;;;;24.32;36.53;101237.31;10607527;28;20522;-77
2023/05/24 09:54:33;;;;;;;7.85;3.33;;;;;;;24.24;36.13;101244.69;10614688;28;20036;-77
2023/05/24 09:59:38;;;;;;;6.05;3.80;;;;;;;24.12;36.76;101241.13;10615548;27;20039;-76
2023/05/24 10:04:41;;;;;;;3.90;3.58;;;;;;;23.78;37.10;101246.22;10572459;28;20044;-77
2023/05/24 10:09:44;;;;;;;7.25;3.92;;;;;;;23.93;37.10;101233.38;10578290;28;20035;-78
2023/05/24 10:14:47;;;;;;;6.78;3.85;;;;;;;24.33;37.06;101227.72;10578421;28;20059;-78
2023/05/24 10:19:51;;;;;;;5.15;4.05;;;;;;;24.21;38.68;101231.38;10606451;28;20044;-77
2023/05/24 10:24:58;;;;;;;4.28;3.88;;;;;;;23.85;40.19;101232.38;10613235;28;20520;-77
2023/05/24 10:30:11;;;;;;;8.48;4.15;;;;;;;23.54;39.93;101230.25;10611765;28;20035;-77
2023/05/24 10:35:15;;;;;;;4.57;3.95;;;;;;;23.31;41.18;101232.75;10605440;28;20044;-77
2023/05/24 10:40:24;;;;;;;4.22;3.83;;;;;;;23.27;40.62;101233.81;10580557;28;20031;-77
2023/05/24 10:45:26;;;;;;;7.13;3.80;;;;;;;23.24;40.78;101229.72;10611073;28;20054;-78
2023/05/24 10:50:28;;;;;;;5.78;3.85;;;;;;;23.30;40.04;101225.53;10612279;28;20058;-77
2023/05/24 10:55:33;;;;;;;3.95;3.55;;;;;;;23.40;38.95;101230.63;10588494;28;20075;-76
2023/05/24 11:00:43;;;;;;;3.83;3.08;;;;;;;23.65;38.06;101219.41;10595754;28;20031;-77
2023/05/24 11:05:46;;;;;;;5.13;3.38;;;;;;;23.64;36.10;101217.75;10611043;28;20040;-78
2023/05/24 11:10:48;;;;;;;3.58;3.10;;;;;;;23.53;38.09;101209.00;10598273;28;20051;-78
2023/05/24 11:15:50;;;;;;;3.28;2.85;;;;;;;23.73;35.75;101205.22;10568696;28;20040;-78
2023/05/24 11:20:53;;;;;;;3.38;2.83;;;;;;;23.50;35.44;101208.91;10567133;28;20521;-78
2023/05/24 11:25:56;;;;;;;6.70;3.45;;;;;;;23.73;36.68;101205.22;10567055;28;20036;-78
2023/05/24 11:31:07;;;;;;;3.20;2.80;;;;;;;23.99;35.48;101187.94;10602710;28;20528;-77
2023/05/24 11:36:09;;;;;;;4.45;3.30;;;;;;;23.90;35.21;101178.06;10576401;28;20050;-78
2023/05/24 11:41:12;;;;;;;4.30;3.42;;;;;;;24.01;35.82;101187.56;10593171;28;20043;-78
2023/05/24 11:46:14;;;;;;;3.58;2.35;;;;;;;24.03;34.24;101193.63;10579301;28;20494;-77
2023/05/24 11:51:16;;;;;;;2.58;2.38;;;;;;;23.84;35.22;101179.50;10601348;28;20578;-77
2023/05/24 11:56:20;;;;;;;5.20;2.92;;;;;;;23.79;35.84;101188.97;10548805;28;20055;-77
2023/05/24 12:01:26;;;;;;;5.25;2.90;;;;;;;23.66;35.35;101179.00;10561263;28;20036;-77
2023/05/24 12:06:36;;;;;;;4.25;2.88;;;;;;;23.44;35.59;101178.34;10611961;28;20059;-78
2023/05/24 12:11:40;;;;;;;5.45;2.58;;;;;;;23.40;35.57;101177.41;10562415;28;20055;-77
2023/05/24 12:16:43;;;;;;;6.07;2.90;;;;;;;23.31;34.61;101156.34;10608306;28;20466;-78
2023/05/24 12:21:48;;;;;;;2.85;2.65;;;;;;;23.32;34.53;101158.78;10582851;28;20039;-77
2023/05/24 12:26:51;;;;;;;2.58;2.38;;;;;;;23.32;34.44;101155.16;10603631;28;20043;-77
2023/05/24 12:31:53;;;;;;;2.58;2.22;;;;;;;23.37;34.90;101152.91;10572729;28;20036;-76
2023/05/24 12:36:55;;;;;;;3.20;2.58;;;;;;;23.05;35.68;101146.34;10618075;27;20035;-78
2023/05/24 12:42:00;;;;;;;5.70;2.65;;;;;;;23.16;36.09;101141.91;10598409;28;20505;-76
2023/05/24 12:47:05;;;;;;;2.78;2.47;;;;;;;23.37;36.19;101141.72;10614943;28;20039;-76
2023/05/24 12:52:07;;;;;;;6.20;2.63;;;;;;;23.57;34.89;101139.09;10578541;27;20469;-77
2023/05/24 12:57:10;;;;;;;5.72;2.85;;;;;;;23.47;35.17;101143.22;10581461;28;20513;-78
2023/05/24 13:02:12;;;;;;;4.70;2.90;;;;;;;23.28;35.51;101145.84;10578079;27;20047;-78
2023/05/24 13:07:14;;;;;;;3.72;2.45;;;;;;;23.22;35.80;101136.84;10621836;27;20400;-75
2023/05/24 13:12:16;;;;;;;2.70;2.40;;;;;;;23.23;35.78;101132.06;10602111;27;20035;-77
2023/05/24 13:17:19;;;;;;;2.80;2.47;;;;;;;23.20;35.50;101141.19;10622496;27;20557;-77
2023/05/24 13:22:21;;;;;;;2.85;2.65;;;;;;;22.89;35.74;101134.25;10607422;27;20504;-77
2023/05/24 13:27:23;;;;;;;4.10;2.80;;;;;;;22.71;36.80;101133.66;10617778;27;20035;-75
2023/05/24 13:32:25;;;;;;;5.20;3.00;;;;;;;22.58;36.25;101126.47;10591382;28;20525;-74
2023/05/24 13:37:27;;;;;;;3.83;2.85;;;;;;;22.40;36.16;101131.47;10562455;28;20405;-78
2023/05/24 13:42:30;;;;;;;2.80;2.38;;;;;;;22.41;37.11;101123.91;10603606;27;20044;-80
2023/05/24 13:47:32;;;;;;;4.43;2.40;;;;;;;22.46;36.88;101132.06;10604183;27;20046;-78
2023/05/24 13:52:34;;;;;;;4.88;2.95;;;;;;;22.44;36.46;101132.41;10588003;28;20035;-76
2023/05/24 13:57:36;;;;;;;4.53;2.60;;;;;;;22.44;36.10;101117.63;10603530;27;20673;-77
2023/05/24 14:02:38;;;;;;;2.90;2.70;;;;;;;22.46;36.03;101127.28;10599644;27;20048;-77
2023/05/24 14:07:41;;;;;;;2.80;2.53;;;;;;;22.47;35.86;101123.31;10616548;27;20032;-76
2023/05/24 14:12:43;;;;;;;4.18;2.85;;;;;;;22.44;36.69;101124.03;10611987;27;20038;-75
2023/05/24 14:17:45;;;;;;;3.10;2.80;;;;;;;22.50;36.54;101110.59;10612743;27;20354;-75
2023/05/24 14:22:47;;;;;;;3.28;2.72;;;;;;;22.51;36.83;101118.66;10612438;28;20039;-75
2023/05/24 14:27:49;;;;;;;3.17;2.88;;;;;;;22.64;36.70;101116.66;10594924;28;20406;-75
2023/05/24 14:32:52;;;;;;;4.00;2.95;;;;;;;22.58;36.52;101106.91;10611750;27;20058;-75
2023/05/24 14:37:54;;;;;;;3.25;2.67;;;;;;;22.58;36.63;101114.47;10618506;27;20066;-75
2023/05/24 14:42:56;;;;;;;5.60;2.97;;;;;;;22.50;36.52;101119.81;10618992;27;20043;-74
2023/05/24 14:47:59;;;;;;;3.80;2.75;;;;;;;22.29;38.01;101112.72;10657592;27;20500;-74
2023/05/24 14:53:07;;;;;;;3.78;3.08;;;;;;;22.22;37.90;101119.72;10650600;27;20047;-74
2023/05/24 14:58:10;;;;;;;4.65;2.60;;;;;;;22.18;38.82;101112.34;10634567;27;20031;-75
2023/05/24 15:03:18;;;;;;;4.53;2.88;;;;;;;22.09;38.18;101109.69;10618579;27;20041;-75
2023/05/24 15:08:20;;;;;;;4.40;3.00;;;;;;;22.03;39.03;101113.00;10645621;27;20476;-78
2023/05/24 15:13:24;;;;;;;3.33;2.80;;;;;;;22.02;39.08;101108.56;10643860;27;20431;-82
2023/05/24 15:18:29;;;;;;;5.10;2.80;;;;;;;21.98;38.70;101103.69;10650980;27;20076;-81
2023/05/24 15:23:31;;;;;;;3.47;2.70;;;;;;;21.93;38.66;101095.53;10625670;27;20075;-80
2023/05/24 15:28:33;;;;;;;4.03;2.72;;;;;;;21.91;38.98;101095.06;10621581;27;20062;-76
2023/05/24 15:33:36;;;;;;;7.38;3.10;;;;;;;21.96;39.17;101092.03;10592526;28;20052;-75
2023/05/24 15:38:39;;;;;;;3.50;2.83;;;;;;;21.90;38.23;101087.84;10642295;28;20053;-76
2023/05/24 15:43:42;;;;;;;4.53;3.38;;;;;;;21.74;39.18;101095.25;10616757;28;20079;-77
2023/05/24 15:48:44;;;;;;;6.55;3.03;;;;;;;21.63;40.08;101094.88;10558876;28;20490;-76
2023/05/24 15:53:46;;;;;;;4.82;3.00;;;;;;;21.58;39.88;101092.31;10677709;27;20047;-76
2023/05/24 15:58:48;;;;;;;4.07;2.63;;;;;;;21.59;40.29;101084.75;10637574;27;20055;-76
2023/05/24 16:03:51;;;;;;;5.88;3.65;;;;;;;21.64;40.36;101087.31;10625380;27;20389;-80
2023/05/24 16:08:53;;;;;;;4.03;3.13;;;;;;;21.70;39.86;101085.94;10645016;27;20039;-78
2023/05/24 16:13:56;;;;;;;4.55;3.10;;;;;;;21.74;39.75;101086.88;10650122;27;20378;-76
2023/05/24 16:18:58;;;;;;;3.50;2.88;;;;;;;21.77;39.65;101077.00;10633545;27;20047;-77
2023/05/24 16:24:02;;;;;;;2.85;2.55;;;;;;;21.74;39.49;101081.28;10650788;27;20051;-77
2023/05/24 16:29:05;;;;;;;4.28;3.08;;;;;;;21.73;39.06;101090.03;10641360;27;20420;-77
2023/05/24 16:34:08;;;;;;;5.07;2.63;;;;;;;21.74;38.95;101080.47;10657782;27;20047;-76
2023/05/24 16:39:10;;;;;;;3.03;2.67;;;;;;;21.76;39.89;101083.75;10646357;27;20031;-77
2023/05/24 16:44:16;;;;;;;4.03;3.10;;;;;;;21.69;38.84;101081.50;10660746;27;20055;-76
2023/05/24 16:49:18;;;;;;;6.93;3.03;;;;;;;21.69;39.05;101084.28;10657577;27;20039;-77
2023/05/24 16:54:20;;;;;;;5.90;3.58;;;;;;;21.75;39.32;101082.94;10646828;27;20038;-76
2023/05/24 16:59:22;;;;;;;3.97;2.78;;;;;;;21.74;39.40;101078.50;10658347;27;20043;-80
2023/05/24 17:04:24;;;;;;;3.35;2.80;;;;;;;21.71;39.50;101089.56;10640855;27;20051;-79
2023/05/24 17:09:27;;;;;;;6.50;2.88;;;;;;;21.71;39.03;101089.56;10642766;27;20436;-79
2023/05/24 17:14:30;;;;;;;4.45;3.30;;;;;;;21.69;39.57;101087.09;10629612;27;20050;-78
2023/05/24 17:19:32;;;;;;;5.05;3.30;;;;;;;21.53;39.59;101086.13;10651606;27;20035;-77
2023/05/24 17:24:34;;;;;;;3.15;2.78;;;;;;;21.43;40.13;101086.56;10642633;27;20044;-78
2023/05/24 17:29:36;;;;;;;3.80;2.58;;;;;;;21.27;40.17;101084.41;10648369;27;20545;-82
2023/05/24 17:34:38;;;;;;;7.15;2.75;;;;;;;21.15;39.59;101078.72;10637897;27;20052;-81
2023/05/24 17:39:41;;;;;;;5.93;2.72;;;;;;;21.00;40.15;101082.13;10588309;27;20125;-81
2023/05/24 17:44:43;;;;;;;8.18;3.20;;;;;;;20.87;39.61;101078.47;10664407;27;20047;-81
2023/05/24 17:49:45;;;;;;;9.40;2.85;;;;;;;20.86;40.42;101074.06;10656557;27;20039;-78
2023/05/24 17:54:48;;;;;;;7.90;3.10;;;;;;;20.82;40.49;101077.84;10617283;27;20039;-77
2023/05/24 17:59:50;;;;;;;4.65;2.95;;;;;;;20.78;40.28;101077.72;10657822;27;20042;-79
2023/05/24 18:04:54;;;;;;;6.45;3.20;;;;;;;20.69;40.98;101075.00;10639310;27;20074;-82
2023/05/24 18:09:56;;;;;;;7.25;3.70;;;;;;;20.61;40.55;101066.69;10629696;27;20034;-78
2023/05/24 18:14:58;;;;;;;4.93;2.63;;;;;;;20.49;38.93;101074.97;10635532;27;20047;-77
2023/05/24 18:20:00;;;;;;;6.88;2.50;;;;;;;20.38;38.23;101074.50;10656040;27;20520;-78
2023/05/24 18:25:03;;;;;;;3.70;2.50;;;;;;;20.26;38.54;101075.22;10619999;27;20065;-79
2023/05/24 18:30:06;;;;;;;8.38;2.83;;;;;;;20.12;38.62;101075.44;10654238;27;20038;-79
2023/05/24 18:35:10;;;;;;;5.07;2.80;;;;;;;20.02;38.95;101078.63;10648682;27;20509;-78
2023/05/24 18:40:15;;;;;;;3.00;2.70;;;;;;;19.96;39.13;101076.34;10593470;27;20039;-79
2023/05/24 18:45:17;;;;;;;9.35;2.95;;;;;;;19.86;39.32;101069.19;10620672;27;20054;-78
2023/05/24 18:50:21;;;;;;;6.22;3.17;;;;;;;19.76;39.74;101062.00;10608012;27;20031;-77
2023/05/24 18:55:23;;;;;;;5.43;2.40;;;;;;;19.76;39.68;101066.75;10651925;27;20037;-78
2023/05/24 19:00:26;;;;;;;3.38;2.78;;;;;;;19.86;39.52;101066.41;10632860;27;20122;-79
2023/05/24 19:05:28;;;;;;;6.07;2.50;;;;;;;19.90;39.84;101063.75;10650677;27;21247;-78
2023/05/24 19:10:30;;;;;;;6.85;2.70;;;;;;;19.93;39.77;101061.13;10615090;27;20043;-78
2023/05/24 19:15:34;;;;;;;4.90;2.35;;;;;;;19.87;39.32;101063.28;10603313;28;20498;-76
2023/05/24 19:20:36;;;;;;;5.60;2.90;;;;;;;19.78;39.25;101051.34;10569720;28;20449;-76
2023/05/24 19:25:39;;;;;;;5.72;2.80;;;;;;;19.59;39.46;101050.91;10590075;28;20035;-76
2023/05/24 19:30:42;;;;;;;7.47;3.38;;;;;;;19.52;40.15;101048.63;10573761;28;20054;-74
2023/05/24 19:35:44;;;;;;;7.80;3.53;;;;;;;19.50;42.06;101048.13;10640927;27;20047;-76
2023/05/24 19:40:46;;;;;;;12.52;3.67;;;;;;;19.40;44.93;101040.13;10649980;27;20424;-76
2023/05/24 19:45:50;;;;;;;6.93;4.32;;;;;;;19.25;45.81;101054.53;10654628;27;20548;-74
2023/05/24 19:50:52;;;;;;;9.75;4.65;;;;;;;19.09;47.39;101048.69;10660814;27;20050;-74
2023/05/24 19:55:55;;;;;;;7.88;5.15;;;;;;;18.96;47.92;101038.56;10639191;27;20058;-75
2023/05/24 20:00:57;;;;;;;8.35;4.90;;;;;;;18.79;48.79;101036.59;10640705;27;20108;-75
2023/05/24 20:06:00;;;;;;;11.00;5.95;;;;;;;18.72;49.60;101033.47;10645065;27;20030;-75
2023/05/24 20:11:02;;;;;;;8.45;4.20;;;;;;;18.62;49.91;101039.34;10645252;27;20031;-76
2023/05/24 20:16:05;;;;;;;15.13;4.97;;;;;;;18.55;50.62;101036.19;10623099;27;20136;-75
2023/05/24 20:21:07;;;;;;;8.45;5.22;;;;;;;18.33;50.99;101034.38;10641161;27;20042;-75
2023/05/24 20:26:10;;;;;;;12.23;4.65;;;;;;;18.21;51.28;101029.44;10640646;27;20057;-74
2023/05/24 20:31:12;;;;;;;10.82;4.78;;;;;;;18.23;52.18;101032.72;10649004;27;20497;-75
2023/05/24 20:36:14;;;;;;;8.63;5.07;;;;;;;18.29;52.07;101019.50;10633774;27;20031;-75
2023/05/24 20:41:17;;;;;;;9.95;4.80;;;;;;;18.35;51.85;101019.00;10639460;27;20054;-76
2023/05/24 20:46:19;;;;;;;8.38;5.30;;;;;;;18.28;52.26;101024.25;10648478;27;20046;-75
2023/05/24 20:51:21;;;;;;;9.43;5.03;;;;;;;18.24;52.11;101020.47;10635872;27;20508;-75
2023/05/24 20:56:25;;;;;;;7.68;4.72;;;;;;;18.18;51.73;101012.59;10638539;27;20039;-74
2023/05/24 21:01:27;;;;;;;7.78;3.85;;;;;;;18.13;52.43;101021.09;10654618;27;20039;-73
2023/05/24 21:06:31;;;;;;;7.40;4.53;;;;;;;18.10;52.45;101016.19;10627284;27;20039;-78
2023/05/24 21:11:33;;;;;;;7.28;4.38;;;;;;;18.00;52.66;101017.28;10630667;27;23071;-75
2023/05/24 21:16:35;;;;;;;6.45;4.35;;;;;;;17.99;53.49;101018.44;10603067;27;20404;-75
2023/05/24 21:21:37;;;;;;;8.50;4.32;;;;;;;17.99;53.56;101022.03;10650747;27;20043;-75
2023/05/24 21:26:40;;;;;;;10.35;4.38;;;;;;;17.87;54.13;101021.00;10635292;27;20132;-75
2023/05/24 21:31:42;;;;;;;9.15;4.70;;;;;;;17.72;55.00;101017.53;10624031;27;20046;-77
2023/05/24 21:36:44;;;;;;;8.98;5.05;;;;;;;17.61;55.88;101018.09;10623582;27;20046;-77
2023/05/24 21:41:47;;;;;;;8.00;4.88;;;;;;;17.48;56.53;101014.25;10622385;27;20044;-77
2023/05/24 21:46:49;;;;;;;9.50;5.65;;;;;;;17.29;57.44;101024.75;10613998;27;20043;-77
2023/05/24 21:51:52;;;;;;;11.25;5.15;;;;;;;16.97;57.07;101018.34;10631627;27;20512;-77
2023/05/24 21:56:54;;;;;;;9.98;5.25;;;;;;;16.86;58.37;101016.97;10658036;27;20039;-77
2023/05/24 22:01:56;;;;;;;14.40;6.70;;;;;;;16.72;59.58;101010.66;10635370;27;20038;-77
2023/05/24 22:06:58;;;;;;;12.15;5.93;;;;;;;16.69;59.21;101006.56;10654110;27;20662;-76
2023/05/24 22:12:01;;;;;;;10.90;4.93;;;;;;;16.73;58.08;101006.75;10632720;27;20046;-76
2023/05/24 22:17:03;;;;;;;14.73;4.95;;;;;;;16.83;58.42;100998.16;10656960;27;20039;-78
2023/05/24 22:22:06;;;;;;;11.65;4.90;;;;;;;16.85;57.49;101005.06;10637833;27;20485;-76
2023/05/24 22:27:12;;;;;;;8.15;4.75;;;;;;;16.90;57.80;100995.78;10634847;27;20420;-76
2023/05/24 22:32:14;;;;;;;8.15;4.35;;;;;;;16.95;57.37;100998.44;10647822;27;20039;-75
2023/05/24 22:37:17;;;;;;;10.02;4.35;;;;;;;16.93;57.06;100983.25;10637510;27;20039;-76
2023/05/24 22:42:19;;;;;;;7.95;4.70;;;;;;;16.93;56.77;100986.03;10655377;27;20119;-76
2023/05/24 22:47:22;;;;;;;8.82;4.35;;;;;;;16.94;56.16;100991.25;10617793;27;20046;-76
2023/05/24 22:52:25;;;;;;;7.97;4.57;;;;;;;16.91;57.14;100989.13;10655414;27;20038;-77
2023/05/24 22:57:27;;;;;;;6.55;4.60;;;;;;;16.83;57.23;100987.94;10655348;27;20402;-77
2023/05/24 23:02:29;;;;;;;5.80;4.13;;;;;;;16.71;57.68;100975.75;10655507;27;20539;-77
2023/05/24 23:07:32;;;;;;;7.80;4.53;;;;;;;16.70;57.69;100985.22;10636763;27;20047;-74
2023/05/24 23:12:34;;;;;;;7.28;4.50;;;;;;;16.65;58.09;100979.75;10619202;27;20042;-76